Time;durP1;ratioP1;P1;durP2;ratioP2;P2;SDS_P1;SDS_P2;PMS_P1;PMS_P2;Temp;Humidity;BMP_temperature;BMP_pressure;BME280_temperature;BME280_humidity;BME280_pressure;Samples;Min_cycle;Max_cycle;Signal;HPM_P1;HPM_P2
2022/08/26 00:02:02;;;;;;;46.72;29.80;;;;;;;;;;5012819;28;20066;-92
2022/08/26 00:04:28;;;;;;;43.72;29.90;;;;;;;;;;5021782;28;20025;-92
2022/08/26 00:06:55;;;;;;;49.72;30.55;;;;;;;;;;5021231;28;20041;-92
2022/08/26 00:09:21;;;;;;;53.53;31.17;;;;;;;;;;5018774;28;20621;-92
2022/08/26 00:11:48;;;;;;;46.50;29.88;;;;;;;;;;5024372;28;20041;-92
2022/08/26 00:14:15;;;;;;;49.47;31.35;;;;;;;;;;5015704;28;20437;-92
2022/08/26 00:16:41;;;;;;;48.80;28.75;;;;;;;;;;5007963;28;20025;-93
2022/08/26 00:19:07;;;;;;;45.90;30.17;;;;;;;;;;5013722;28;21765;-93
2022/08/26 00:21:33;;;;;;;51.45;29.60;;;;;;;;;;5023241;28;20029;-93
2022/08/26 00:23:59;;;;;;;47.60;26.88;;;;;;;;;;5014884;28;20408;-93
2022/08/26 00:26:25;;;;;;;45.65;26.75;;;;;;;;;;5011197;28;20040;-93
2022/08/26 00:28:52;;;;;;;39.17;27.42;;;;;;;;;;5005465;28;20034;-93
2022/08/26 00:31:18;;;;;;;36.15;24.90;;;;;;;;;;5008854;28;20025;-93
2022/08/26 00:33:44;;;;;;;42.50;26.13;;;;;;;;;;5018099;28;20037;-92
2022/08/26 00:36:10;;;;;;;43.10;25.27;;;;;;;;;;5008787;28;20037;-92
2022/08/26 00:38:36;;;;;;;39.90;24.15;;;;;;;;;;5020363;28;20524;-92
2022/08/26 00:41:02;;;;;;;48.42;25.45;;;;;;;;;;5006753;28;20037;-93
2022/08/26 00:43:29;;;;;;;35.55;23.77;;;;;;;;;;5006550;28;20033;-93
2022/08/26 00:45:58;;;;;;;38.47;23.02;;;;;;;;;;5014007;28;20029;-93
2022/08/26 00:48:25;;;;;;;47.40;22.30;;;;;;;;;;5021825;28;20028;-93
2022/08/26 00:50:57;;;;;;;38.55;20.75;;;;;;;;;;5027707;28;20049;-93
2022/08/26 00:53:25;;;;;;;41.80;21.15;;;;;;;;;;5013030;28;20056;-92
2022/08/26 00:55:57;;;;;;;39.15;21.65;;;;;;;;;;5016862;28;20030;-93
2022/08/26 00:58:24;;;;;;;40.45;19.88;;;;;;;;;;5020007;28;20580;-93
2022/08/26 01:00:50;;;;;;;33.42;20.65;;;;;;;;;;5004780;28;20463;-92
2022/08/26 01:03:18;;;;;;;38.75;19.90;;;;;;;;;;5000208;28;20500;-93
2022/08/26 01:05:45;;;;;;;40.20;19.35;;;;;;;;;;5020338;28;20034;-93
2022/08/26 01:08:11;;;;;;;34.40;19.65;;;;;;;;;;5005951;28;20021;-93
2022/08/26 01:10:37;;;;;;;42.25;20.83;;;;;;;;;;5009772;28;20657;-93
2022/08/26 01:13:08;;;;;;;36.97;19.33;;;;;;;;;;5000391;28;20554;-92
2022/08/26 01:15:36;;;;;;;32.40;18.67;;;;;;;;;;5016168;28;20056;-93
2022/08/26 01:18:04;;;;;;;39.08;18.92;;;;;;;;;;5019424;28;20519;-93
2022/08/26 01:20:36;;;;;;;32.40;20.10;;;;;;;;;;5021699;28;20068;-92
2022/08/26 01:23:04;;;;;;;36.38;19.95;;;;;;;;;;5014651;28;20033;-93
2022/08/26 01:25:32;;;;;;;42.00;20.52;;;;;;;;;;5015472;28;20079;-93
2022/08/26 01:27:59;;;;;;;40.13;20.30;;;;;;;;;;5019223;28;20488;-93
2022/08/26 01:30:26;;;;;;;39.60;19.20;;;;;;;;;;5022490;28;20025;-94
2022/08/26 01:32:54;;;;;;;49.10;20.92;;;;;;;;;;5019644;28;20025;-92
2022/08/26 01:35:20;;;;;;;44.55;21.00;;;;;;;;;;5019280;28;20078;-93
2022/08/26 01:37:47;;;;;;;42.53;21.20;;;;;;;;;;5011909;28;20475;-92
2022/08/26 01:40:16;;;;;;;53.83;22.65;;;;;;;;;;5019928;28;20505;-93
2022/08/26 01:42:42;;;;;;;40.58;21.80;;;;;;;;;;5020306;28;20017;-92
2022/08/26 01:45:17;;;;;;;55.75;20.77;;;;;;;;;;5007467;28;20034;-92
2022/08/26 01:47:44;;;;;;;41.03;21.65;;;;;;;;;;5022888;28;20041;-92
2022/08/26 01:50:12;;;;;;;48.38;20.30;;;;;;;;;;5004756;28;20041;-92
2022/08/26 01:52:41;;;;;;;41.45;19.85;;;;;;;;;;5018091;28;20515;-91
2022/08/26 01:55:07;;;;;;;51.75;22.33;;;;;;;;;;5015144;28;21267;-92
2022/08/26 01:57:34;;;;;;;49.45;21.10;;;;;;;;;;5010706;28;20044;-93
2022/08/26 02:00:02;;;;;;;43.35;20.90;;;;;;;;;;5016221;28;20029;-92
2022/08/26 02:02:28;;;;;;;41.95;21.40;;;;;;;;;;5024876;28;20065;-92
2022/08/26 02:04:58;;;;;;;50.67;20.92;;;;;;;;;;5005898;28;20076;-92
2022/08/26 02:07:24;;;;;;;45.35;19.73;;;;;;;;;;5013828;28;20678;-92
2022/08/26 02:09:50;;;;;;;54.85;21.20;;;;;;;;;;5008405;28;20036;-92
2022/08/26 02:12:18;;;;;;;47.97;20.08;;;;;;;;;;5003658;28;20037;-92
2022/08/26 02:14:52;;;;;;;50.05;19.85;;;;;;;;;;5022191;28;20318;-92
2022/08/26 02:17:21;;;;;;;57.47;19.45;;;;;;;;;;5024818;28;20029;-92
2022/08/26 02:19:47;;;;;;;50.70;20.08;;;;;;;;;;5021540;28;20025;-93
2022/08/26 02:22:17;;;;;;;46.72;21.30;;;;;;;;;;5014223;28;20044;-92
2022/08/26 02:24:46;;;;;;;44.85;19.85;;;;;;;;;;5016234;28;20485;-92
2022/08/26 02:27:13;;;;;;;37.05;19.20;;;;;;;;;;5012953;28;20170;-92
2022/08/26 02:29:41;;;;;;;43.72;19.40;;;;;;;;;;5018741;28;20041;-92
2022/08/26 02:32:09;;;;;;;45.08;20.00;;;;;;;;;;5021202;28;20713;-92
2022/08/26 02:34:35;;;;;;;50.28;19.52;;;;;;;;;;5003317;28;20033;-92
2022/08/26 02:37:02;;;;;;;41.42;19.38;;;;;;;;;;5006745;28;20041;-92
2022/08/26 02:39:29;;;;;;;46.42;19.35;;;;;;;;;;5016838;28;20405;-92
2022/08/26 02:41:56;;;;;;;43.63;19.25;;;;;;;;;;5015439;28;20033;-92
2022/08/26 02:44:22;;;;;;;43.30;18.98;;;;;;;;;;5016115;28;20503;-92
2022/08/26 02:46:48;;;;;;;46.50;19.63;;;;;;;;;;5018698;28;20026;-92
2022/08/26 02:49:15;;;;;;;40.55;20.02;;;;;;;;;;5033265;28;20036;-92
2022/08/26 02:51:41;;;;;;;41.72;19.45;;;;;;;;;;5021685;28;20053;-92
2022/08/26 02:54:07;;;;;;;45.45;19.05;;;;;;;;;;5001969;28;20029;-92
2022/08/26 02:56:34;;;;;;;43.95;18.55;;;;;;;;;;5016162;28;20029;-92
2022/08/26 02:59:00;;;;;;;43.33;17.67;;;;;;;;;;5004660;28;20125;-92
2022/08/26 03:01:28;;;;;;;39.60;18.20;;;;;;;;;;5003028;28;20042;-92
2022/08/26 03:03:54;;;;;;;50.63;19.35;;;;;;;;;;5026464;28;20465;-92
2022/08/26 03:06:21;;;;;;;41.28;18.05;;;;;;;;;;5014284;28;20435;-92
2022/08/26 03:08:47;;;;;;;42.83;18.70;;;;;;;;;;5019716;28;20160;-91
2022/08/26 03:11:14;;;;;;;33.88;17.13;;;;;;;;;;4997703;28;20030;-92
2022/08/26 03:13:40;;;;;;;43.00;19.30;;;;;;;;;;5015102;28;20025;-92
2022/08/26 03:16:07;;;;;;;33.70;18.13;;;;;;;;;;5017274;28;20037;-91
2022/08/26 03:18:33;;;;;;;43.55;18.88;;;;;;;;;;5019899;28;20076;-92
2022/08/26 03:21:05;;;;;;;47.15;19.13;;;;;;;;;;5006244;28;20042;-92
2022/08/26 03:23:30;;;;;;;38.85;17.35;;;;;;;;;;5026115;28;20057;-92
2022/08/26 03:25:57;;;;;;;42.75;17.02;;;;;;;;;;5006863;28;20135;-92
2022/08/26 03:28:23;;;;;;;42.70;16.02;;;;;;;;;;5015147;28;20030;-93
2022/08/26 03:30:49;;;;;;;40.45;17.52;;;;;;;;;;5020038;28;20025;-92
2022/08/26 03:33:16;;;;;;;35.97;16.95;;;;;;;;;;5005675;28;20124;-94
2022/08/26 03:35:43;;;;;;;40.00;16.73;;;;;;;;;;5020460;28;20076;-93
2022/08/26 03:38:10;;;;;;;33.90;14.90;;;;;;;;;;5006825;28;20041;-93
2022/08/26 03:40:37;;;;;;;48.80;17.67;;;;;;;;;;5017685;28;20033;-92
2022/08/26 03:43:04;;;;;;;36.00;14.77;;;;;;;;;;5027446;28;20033;-93
2022/08/26 03:45:30;;;;;;;40.78;15.98;;;;;;;;;;5002517;28;20132;-93
2022/08/26 03:47:56;;;;;;;34.28;15.70;;;;;;;;;;5022025;28;20412;-92
2022/08/26 03:50:23;;;;;;;40.17;16.50;;;;;;;;;;5020795;28;20489;-93
2022/08/26 03:52:50;;;;;;;37.20;14.75;;;;;;;;;;5024653;28;20567;-93
2022/08/26 03:55:17;;;;;;;36.03;15.20;;;;;;;;;;5024662;28;20021;-93
2022/08/26 03:57:43;;;;;;;41.35;16.50;;;;;;;;;;5011868;28;20029;-93
2022/08/26 04:00:12;;;;;;;37.55;14.57;;;;;;;;;;5017648;28;20123;-92
2022/08/26 04:02:38;;;;;;;31.15;14.20;;;;;;;;;;5022530;28;20033;-92
2022/08/26 04:05:04;;;;;;;30.10;13.82;;;;;;;;;;5008746;28;20051;-93
2022/08/26 04:07:30;;;;;;;34.75;13.75;;;;;;;;;;5007993;28;20028;-93
2022/08/26 04:09:56;;;;;;;27.92;13.38;;;;;;;;;;5006079;28;20029;-93
2022/08/26 04:12:24;;;;;;;38.28;14.32;;;;;;;;;;5021977;28;20347;-92
2022/08/26 04:14:50;;;;;;;34.08;13.32;;;;;;;;;;5009603;28;20466;-92
2022/08/26 04:17:24;;;;;;;32.40;14.35;;;;;;;;;;5021538;28;20037;-92
2022/08/26 04:19:51;;;;;;;27.55;13.75;;;;;;;;;;5022970;28;20021;-94
2022/08/26 04:22:17;;;;;;;30.17;14.10;;;;;;;;;;5002009;28;20412;-92
2022/08/26 04:24:44;;;;;;;28.77;12.82;;;;;;;;;;5002965;28;20064;-92
2022/08/26 04:27:10;;;;;;;33.83;12.65;;;;;;;;;;5019676;28;20567;-93
2022/08/26 04:29:37;;;;;;;31.90;12.48;;;;;;;;;;5019567;28;20032;-93
2022/08/26 04:32:03;;;;;;;29.63;12.43;;;;;;;;;;5005167;28;20036;-93
2022/08/26 04:34:31;;;;;;;29.58;12.05;;;;;;;;;;5007827;28;20034;-93
2022/08/26 04:36:57;;;;;;;28.05;13.20;;;;;;;;;;5005710;28;20032;-93
2022/08/26 04:39:23;;;;;;;33.22;13.45;;;;;;;;;;5007303;28;20498;-93
2022/08/26 04:41:50;;;;;;;29.92;12.82;;;;;;;;;;5020414;28;20036;-92
2022/08/26 04:44:16;;;;;;;33.60;14.43;;;;;;;;;;5015308;28;20041;-93
2022/08/26 04:46:42;;;;;;;29.50;13.52;;;;;;;;;;5023659;28;20566;-93
2022/08/26 04:49:08;;;;;;;33.58;15.60;;;;;;;;;;5004315;28;20366;-92
2022/08/26 04:51:35;;;;;;;31.48;14.70;;;;;;;;;;5018675;28;20370;-93
2022/08/26 04:54:02;;;;;;;37.15;16.95;;;;;;;;;;5020394;28;20037;-92
2022/08/26 04:56:32;;;;;;;38.53;15.52;;;;;;;;;;5021115;28;20055;-93
2022/08/26 04:58:58;;;;;;;35.95;13.95;;;;;;;;;;5023226;28;20095;-92
2022/08/26 05:01:24;;;;;;;37.85;14.70;;;;;;;;;;5006832;28;20485;-92
2022/08/26 05:03:51;;;;;;;36.00;13.70;;;;;;;;;;5008611;28;20555;-93
2022/08/26 05:06:18;;;;;;;29.27;13.02;;;;;;;;;;5006679;28;20040;-93
2022/08/26 05:08:44;;;;;;;30.17;13.73;;;;;;;;;;5029603;28;20504;-93
2022/08/26 05:11:10;;;;;;;34.92;13.55;;;;;;;;;;5002407;28;20037;-92
2022/08/26 05:13:38;;;;;;;22.83;12.35;;;;;;;;;;5019882;28;20198;-92
2022/08/26 05:16:05;;;;;;;24.02;11.43;;;;;;;;;;5024644;28;20029;-92
2022/08/26 05:18:32;;;;;;;29.48;13.23;;;;;;;;;;5022547;28;20759;-92
2022/08/26 05:20:59;;;;;;;32.10;12.20;;;;;;;;;;5018806;28;20040;-93
2022/08/26 05:23:25;;;;;;;31.42;11.60;;;;;;;;;;5018748;28;20463;-92
2022/08/26 05:25:53;;;;;;;28.42;12.82;;;;;;;;;;5022869;28;20112;-93
2022/08/26 05:28:20;;;;;;;34.38;12.68;;;;;;;;;;5022277;28;20032;-93
2022/08/26 05:30:47;;;;;;;30.63;12.65;;;;;;;;;;5007526;28;20039;-93
2022/08/26 05:33:13;;;;;;;37.58;11.18;;;;;;;;;;5003638;28;20029;-92
2022/08/26 05:35:40;;;;;;;32.47;11.52;;;;;;;;;;5021439;28;20021;-92
2022/08/26 05:38:07;;;;;;;27.80;11.40;;;;;;;;;;5016949;28;20549;-92
2022/08/26 05:40:34;;;;;;;38.92;12.00;;;;;;;;;;5018787;28;20033;-93
2022/08/26 05:43:00;;;;;;;34.03;11.68;;;;;;;;;;5019969;28;21866;-93
2022/08/26 05:45:26;;;;;;;35.60;12.15;;;;;;;;;;5002448;28;20049;-93
2022/08/26 05:47:53;;;;;;;36.92;12.38;;;;;;;;;;5034460;28;20106;-92
2022/08/26 05:50:20;;;;;;;26.98;11.65;;;;;;;;;;5019831;28;20108;-93
2022/08/26 05:52:50;;;;;;;39.42;12.15;;;;;;;;;;5019452;28;20468;-92
2022/08/26 05:55:16;;;;;;;37.92;11.63;;;;;;;;;;5005629;28;20389;-92
2022/08/26 05:57:43;;;;;;;33.33;11.98;;;;;;;;;;5017122;28;20608;-93
2022/08/26 06:00:10;;;;;;;32.70;12.57;;;;;;;;;;5018007;28;20265;-93
2022/08/26 06:02:37;;;;;;;33.58;13.07;;;;;;;;;;5005173;28;20461;-93
2022/08/26 06:05:03;;;;;;;27.00;11.35;;;;;;;;;;5006920;28;20041;-93
2022/08/26 06:10:14;;;;;;;28.30;11.63;;;;;;;;;;5016800;28;20542;-93
2022/08/26 06:12:40;;;;;;;25.58;11.23;;;;;;;;;;5015679;28;20032;-93
2022/08/26 06:15:06;;;;;;;26.83;11.63;;;;;;;;;;5006209;28;20522;-93
2022/08/26 06:17:32;;;;;;;25.00;11.73;;;;;;;;;;5000153;28;20033;-93
2022/08/26 06:19:59;;;;;;;23.73;11.75;;;;;;;;;;5014377;28;20052;-94
2022/08/26 06:27:59;;;;;;;21.75;10.80;;;;;;;;;;5018721;28;20122;-92
2022/08/26 06:30:25;;;;;;;28.95;10.43;;;;;;;;;;5005661;28;20092;-92
2022/08/26 06:32:51;;;;;;;22.13;9.20;;;;;;;;;;5018739;28;20029;-93
2022/08/26 06:35:17;;;;;;;24.58;10.38;;;;;;;;;;5010381;28;20685;-92
2022/08/26 06:37:43;;;;;;;29.10;9.93;;;;;;;;;;5002824;28;20041;-93
2022/08/26 06:40:10;;;;;;;25.77;9.43;;;;;;;;;;4999583;28;20061;-93
2022/08/26 06:42:36;;;;;;;37.30;10.43;;;;;;;;;;5002175;28;20080;-93
2022/08/26 06:45:03;;;;;;;32.30;10.43;;;;;;;;;;5001844;28;20049;-92
2022/08/26 06:47:29;;;;;;;25.70;8.85;;;;;;;;;;5017936;28;20218;-92
2022/08/26 06:49:55;;;;;;;25.00;9.10;;;;;;;;;;5010430;28;20025;-92
2022/08/26 06:52:21;;;;;;;25.00;9.70;;;;;;;;;;5018533;28;20135;-93
2022/08/26 06:54:48;;;;;;;25.35;8.32;;;;;;;;;;5007139;28;20421;-92
2022/08/26 06:57:14;;;;;;;20.00;8.95;;;;;;;;;;5007535;28;20090;-93
2022/08/26 06:59:40;;;;;;;35.42;9.60;;;;;;;;;;5002072;28;20058;-92
2022/08/26 07:02:06;;;;;;;31.50;10.55;;;;;;;;;;5007033;28;20029;-94
2022/08/26 07:04:33;;;;;;;29.63;8.25;;;;;;;;;;5012227;28;20483;-90
2022/08/26 07:06:59;;;;;;;20.70;8.05;;;;;;;;;;5017072;28;20028;-93
2022/08/26 07:09:29;;;;;;;25.27;8.60;;;;;;;;;;5017542;28;21411;-92
2022/08/26 07:11:55;;;;;;;26.13;8.35;;;;;;;;;;5017315;28;20536;-93
2022/08/26 07:14:27;;;;;;;25.65;8.18;;;;;;;;;;5021445;28;20025;-92
2022/08/26 07:16:54;;;;;;;18.55;8.48;;;;;;;;;;5006168;28;20036;-92
2022/08/26 07:19:20;;;;;;;20.38;8.02;;;;;;;;;;5025071;28;20457;-91
2022/08/26 07:21:50;;;;;;;23.17;8.38;;;;;;;;;;5019149;28;20491;-95
2022/08/26 07:24:16;;;;;;;19.52;7.65;;;;;;;;;;5017870;28;20132;-92
2022/08/26 07:26:42;;;;;;;18.88;7.50;;;;;;;;;;5028290;28;20507;-93
2022/08/26 07:29:10;;;;;;;19.00;7.70;;;;;;;;;;5005998;28;20032;-92
2022/08/26 07:31:36;;;;;;;21.30;7.07;;;;;;;;;;5007319;28;20031;-95
2022/08/26 07:34:05;;;;;;;18.67;7.68;;;;;;;;;;5020603;28;20025;-92
2022/08/26 07:36:31;;;;;;;23.45;6.63;;;;;;;;;;5000944;28;20037;-93
2022/08/26 07:38:57;;;;;;;19.85;7.10;;;;;;;;;;5010490;28;20062;-92
2022/08/26 07:41:24;;;;;;;18.27;6.53;;;;;;;;;;5023466;28;20083;-93
2022/08/26 07:43:59;;;;;;;17.73;6.70;;;;;;;;;;5014015;28;20064;-92
2022/08/26 07:46:25;;;;;;;25.48;7.63;;;;;;;;;;5017594;28;20049;-93
2022/08/26 07:48:52;;;;;;;21.23;6.93;;;;;;;;;;5005953;28;20055;-94
2022/08/26 07:51:19;;;;;;;13.98;5.13;;;;;;;;;;5019424;28;20132;-93
2022/08/26 07:53:47;;;;;;;16.15;5.90;;;;;;;;;;5006080;28;20469;-90
2022/08/26 07:56:13;;;;;;;8.85;4.70;;;;;;;;;;5009096;28;20065;-91
2022/08/26 07:58:39;;;;;;;23.58;5.75;;;;;;;;;;5004988;28;20044;-92
2022/08/26 08:01:06;;;;;;;12.55;4.70;;;;;;;;;;5005770;28;20595;-91
2022/08/26 08:03:32;;;;;;;10.73;4.32;;;;;;;;;;5012039;28;20033;-93
2022/08/26 08:05:58;;;;;;;12.23;3.63;;;;;;;;;;5004264;28;20084;-92
2022/08/26 08:08:25;;;;;;;10.20;3.80;;;;;;;;;;5016716;28;20025;-93
2022/08/26 08:10:52;;;;;;;17.33;4.20;;;;;;;;;;5018181;28;20374;-91
2022/08/26 08:13:18;;;;;;;10.00;2.90;;;;;;;;;;4998171;28;20490;-90
2022/08/26 08:15:44;;;;;;;14.02;3.92;;;;;;;;;;5020841;28;20021;-91
2022/08/26 08:21:51;;;;;;;12.98;2.70;;;;;;;;;;5022896;28;20131;-93
2022/08/26 08:24:17;;;;;;;14.18;2.95;;;;;;;;;;5018148;28;20044;-94
2022/08/26 08:26:44;;;;;;;12.48;2.92;;;;;;;;;;5007670;28;20032;-94
2022/08/26 08:29:17;;;;;;;12.00;3.05;;;;;;;;;;5030761;28;20029;-96
2022/08/26 08:31:43;;;;;;;8.20;2.40;;;;;;;;;;4999158;28;20029;-92
2022/08/26 08:34:09;;;;;;;11.00;2.72;;;;;;;;;;5005957;28;20477;-92
2022/08/26 08:36:35;;;;;;;17.35;2.95;;;;;;;;;;5017266;28;20033;-92
2022/08/26 08:39:01;;;;;;;10.32;3.03;;;;;;;;;;5010378;28;20106;-92
2022/08/26 08:41:43;;;;;;;14.63;3.80;;;;;;;;;;5017776;28;20029;-92
2022/08/26 08:44:17;;;;;;;13.00;2.58;;;;;;;;;;5017076;28;20029;-92
2022/08/26 08:46:44;;;;;;;14.52;3.22;;;;;;;;;;5024085;28;20029;-93
2022/08/26 08:49:10;;;;;;;11.95;2.50;;;;;;;;;;5006117;28;20032;-92
2022/08/26 08:51:38;;;;;;;9.10;2.78;;;;;;;;;;5025358;28;20132;-92
2022/08/26 08:54:05;;;;;;;9.10;2.30;;;;;;;;;;5016075;28;20061;-93
2022/08/26 08:56:46;;;;;;;14.55;2.83;;;;;;;;;;5023180;28;20033;-93
2022/08/26 08:59:16;;;;;;;10.55;2.45;;;;;;;;;;5020417;28;20025;-92
2022/08/26 09:01:42;;;;;;;9.23;2.85;;;;;;;;;;5022132;28;20072;-93
2022/08/26 09:04:17;;;;;;;6.35;2.28;;;;;;;;;;5020137;28;20033;-93
2022/08/26 09:06:43;;;;;;;13.18;2.42;;;;;;;;;;5021217;28;20455;-93
2022/08/26 09:09:16;;;;;;;11.20;2.75;;;;;;;;;;5010594;28;20045;-92
2022/08/26 09:11:42;;;;;;;10.00;2.30;;;;;;;;;;5043568;28;20140;-92
2022/08/26 09:14:09;;;;;;;13.93;3.33;;;;;;;;;;5013811;28;20079;-92
2022/08/26 09:16:35;;;;;;;8.05;3.00;;;;;;;;;;5007600;28;20112;-93
2022/08/26 09:19:21;;;;;;;16.00;3.20;;;;;;;;;;5014371;28;20128;-92
2022/08/26 09:21:54;;;;;;;11.00;2.35;;;;;;;;;;5019974;28;20581;-92
2022/08/26 09:24:20;;;;;;;9.10;3.00;;;;;;;;;;5011549;28;20025;-92
2022/08/26 09:26:47;;;;;;;8.10;2.40;;;;;;;;;;5001518;28;20044;-93
2022/08/26 09:29:18;;;;;;;12.25;3.13;;;;;;;;;;5014729;28;20028;-93
2022/08/26 09:31:45;;;;;;;8.43;2.28;;;;;;;;;;5019428;28;20020;-92
2022/08/26 09:34:17;;;;;;;8.30;2.38;;;;;;;;;;5018992;28;20091;-92
2022/08/26 09:36:47;;;;;;;10.27;2.30;;;;;;;;;;5022311;28;20578;-92
2022/08/26 09:39:32;;;;;;;12.20;2.58;;;;;;;;;;5034798;28;20060;-92
2022/08/26 09:42:01;;;;;;;12.07;3.05;;;;;;;;;;5025007;28;20024;-93
2022/08/26 09:44:27;;;;;;;14.95;3.05;;;;;;;;;;5016888;28;20040;-92
2022/08/26 09:47:01;;;;;;;9.13;2.45;;;;;;;;;;5012558;28;20536;-92
2022/08/26 09:49:27;;;;;;;12.98;2.50;;;;;;;;;;5023317;28;20029;-94
2022/08/26 09:52:13;;;;;;;15.10;2.72;;;;;;;;;;5017055;28;20536;-92
2022/08/26 09:54:40;;;;;;;9.43;2.60;;;;;;;;;;5025047;28;20480;-92
2022/08/26 09:57:15;;;;;;;7.68;1.92;;;;;;;;;;5028499;28;20036;-92
2022/08/26 09:59:42;;;;;;;14.65;2.50;;;;;;;;;;5016916;28;20029;-92
2022/08/26 10:02:23;;;;;;;13.65;2.60;;;;;;;;;;5014778;28;20065;-92
2022/08/26 10:04:55;;;;;;;7.53;2.08;;;;;;;;;;5013828;28;20036;-93
2022/08/26 10:07:41;;;;;;;7.90;2.05;;;;;;;;;;5019297;28;20480;-92
2022/08/26 10:10:09;;;;;;;12.90;2.60;;;;;;;;;;5037134;28;20497;-93
2022/08/26 10:12:38;;;;;;;10.65;2.53;;;;;;;;;;5017666;28;20429;-93
2022/08/26 10:15:08;;;;;;;8.80;2.58;;;;;;;;;;5024223;28;20029;-92
2022/08/26 10:17:40;;;;;;;12.43;2.65;;;;;;;;;;5018582;28;20037;-92
2022/08/26 10:20:35;;;;;;;11.70;3.40;;;;;;;;;;5022035;28;20087;-93
2022/08/26 10:23:01;;;;;;;12.00;2.53;;;;;;;;;;5006314;28;20413;-92
2022/08/26 10:25:31;;;;;;;9.23;2.53;;;;;;;;;;5019679;28;20522;-92
2022/08/26 10:28:20;;;;;;;8.05;1.98;;;;;;;;;;5015989;28;20029;-93
2022/08/26 10:30:50;;;;;;;9.40;2.58;;;;;;;;;;5009477;28;20201;-92
2022/08/26 10:33:17;;;;;;;8.70;2.40;;;;;;;;;;5016705;28;20033;-92
2022/08/26 10:35:57;;;;;;;10.45;3.25;;;;;;;;;;5008132;28;20409;-92
2022/08/26 10:38:28;;;;;;;6.30;2.72;;;;;;;;;;5028708;28;20024;-92
2022/08/26 10:41:01;;;;;;;8.68;2.80;;;;;;;;;;5033037;28;20174;-92
2022/08/26 10:43:41;;;;;;;6.80;2.63;;;;;;;;;;5018153;28;20079;-91
2022/08/26 10:46:13;;;;;;;9.82;3.65;;;;;;;;;;5024529;28;20469;-92
2022/08/26 10:48:49;;;;;;;7.85;2.70;;;;;;;;;;5015373;28;20053;-92
2022/08/26 10:51:40;;;;;;;7.43;2.75;;;;;;;;;;5019838;28;20377;-93
2022/08/26 10:54:19;;;;;;;18.02;2.40;;;;;;;;;;5020574;28;20053;-92
2022/08/26 10:57:08;;;;;;;10.65;2.50;;;;;;;;;;5028023;28;20041;-92
2022/08/26 10:59:54;;;;;;;6.63;2.40;;;;;;;;;;5039930;28;20021;-92
2022/08/26 11:02:33;;;;;;;8.07;2.72;;;;;;;;;;5005740;28;20049;-92
2022/08/26 11:05:02;;;;;;;11.52;2.85;;;;;;;;;;5018996;28;20029;-92
2022/08/26 11:07:31;;;;;;;14.40;3.15;;;;;;;;;;5026980;28;20036;-92
2022/08/26 11:09:58;;;;;;;27.17;5.13;;;;;;;;;;5017063;28;20120;-92
2022/08/26 11:12:33;;;;;;;9.32;3.10;;;;;;;;;;5013958;28;20022;-92
2022/08/26 11:14:59;;;;;;;12.55;2.85;;;;;;;;;;5032233;28;20080;-92
2022/08/26 11:18:01;;;;;;;13.40;3.30;;;;;;;;;;5022371;28;20131;-93
2022/08/26 11:20:32;;;;;;;11.25;2.63;;;;;;;;;;4925961;28;20039;-92
2022/08/26 11:23:17;;;;;;;9.13;2.78;;;;;;;;;;5002050;28;20403;-92
2022/08/26 11:25:55;;;;;;;15.07;2.88;;;;;;;;;;5021803;28;20379;-92
2022/08/26 11:28:40;;;;;;;8.85;2.45;;;;;;;;;;5016597;28;20021;-92
2022/08/26 11:31:29;;;;;;;12.27;2.30;;;;;;;;;;5021601;28;20029;-92
2022/08/26 11:34:07;;;;;;;8.48;2.15;;;;;;;;;;5019028;28;20033;-92
2022/08/26 11:36:37;;;;;;;9.68;2.10;;;;;;;;;;5020232;28;20017;-92
2022/08/26 11:39:15;;;;;;;14.35;2.88;;;;;;;;;;5017711;28;20183;-92
2022/08/26 11:41:46;;;;;;;11.43;2.47;;;;;;;;;;5027530;28;20033;-92
2022/08/26 11:44:16;;;;;;;15.20;2.30;;;;;;;;;;5021530;28;20040;-93
2022/08/26 11:46:51;;;;;;;9.20;2.10;;;;;;;;;;5022186;28;20024;-92
2022/08/26 11:49:17;;;;;;;7.45;2.17;;;;;;;;;;5029684;28;20026;-92
2022/08/26 11:51:43;;;;;;;12.35;2.30;;;;;;;;;;5004787;28;20441;-92
2022/08/26 11:54:11;;;;;;;14.15;2.63;;;;;;;;;;5010602;28;20029;-92
2022/08/26 11:56:39;;;;;;;12.35;2.25;;;;;;;;;;5026603;28;20033;-93
2022/08/26 11:59:08;;;;;;;15.50;2.97;;;;;;;;;;5018966;28;20053;-92
2022/08/26 12:01:35;;;;;;;14.05;3.67;;;;;;;;;;5023746;28;20025;-92
2022/08/26 12:04:03;;;;;;;20.83;3.85;;;;;;;;;;5015325;28;20033;-92
2022/08/26 12:06:30;;;;;;;15.90;3.92;;;;;;;;;;5020643;28;20411;-92
2022/08/26 12:08:58;;;;;;;12.90;3.63;;;;;;;;;;5020608;28;20473;-92
2022/08/26 12:11:29;;;;;;;29.73;5.05;;;;;;;;;;5028174;28;20029;-93
2022/08/26 12:13:56;;;;;;;17.27;3.38;;;;;;;;;;5020219;28;20500;-93
2022/08/26 12:16:23;;;;;;;13.15;3.10;;;;;;;;;;5021812;28;20039;-92
2022/08/26 12:18:49;;;;;;;14.73;3.63;;;;;;;;;;5020533;28;20111;-93
2022/08/26 12:21:21;;;;;;;20.23;3.70;;;;;;;;;;5024691;28;20389;-92
2022/08/26 12:23:48;;;;;;;16.50;3.13;;;;;;;;;;5021680;28;20500;-92
2022/08/26 12:26:28;;;;;;;17.15;3.83;;;;;;;;;;5013443;28;20839;-92
2022/08/26 12:28:57;;;;;;;11.85;3.13;;;;;;;;;;5020194;28;20481;-92
2022/08/26 12:31:35;;;;;;;15.05;3.35;;;;;;;;;;5022946;28;20021;-92
2022/08/26 12:34:03;;;;;;;13.13;2.75;;;;;;;;;;5026779;28;20039;-92
2022/08/26 12:36:30;;;;;;;17.77;3.30;;;;;;;;;;5023912;28;20024;-92
2022/08/26 12:38:57;;;;;;;13.73;3.70;;;;;;;;;;5023747;28;20085;-93
2022/08/26 12:41:42;;;;;;;15.70;3.05;;;;;;;;;;5024408;28;20037;-93
2022/08/26 12:44:45;;;;;;;;;;;;;;;;;;;;;
2022/08/26 12:47:31;;;;;;;7.22;2.50;;;;;;;;;;5035407;28;20540;-92
2022/08/26 12:50:02;;;;;;;15.80;2.78;;;;;;;;;;5032978;28;20028;-92
2022/08/26 12:52:30;;;;;;;16.73;3.05;;;;;;;;;;5013643;28;20037;-93
2022/08/26 12:55:19;;;;;;;11.75;2.72;;;;;;;;;;5009826;28;20115;-92
2022/08/26 12:57:46;;;;;;;13.32;2.83;;;;;;;;;;4989996;28;20495;-93
2022/08/26 13:00:31;;;;;;;12.85;2.50;;;;;;;;;;5007965;28;20036;-92
2022/08/26 13:02:58;;;;;;;10.32;2.40;;;;;;;;;;5002554;28;20033;-93
2022/08/26 13:05:32;;;;;;;9.75;2.72;;;;;;;;;;5011415;28;20073;-92
2022/08/26 13:08:08;;;;;;;4.05;1.98;;;;;;;;;;5010919;28;20033;-95
2022/08/26 13:10:35;;;;;;;12.25;2.03;;;;;;;;;;4994857;28;20454;-92
2022/08/26 13:13:01;;;;;;;10.38;2.25;;;;;;;;;;5003014;28;20099;-92
2022/08/26 13:15:27;;;;;;;10.30;2.60;;;;;;;;;;4994689;28;20487;-93
2022/08/26 13:17:53;;;;;;;9.20;2.53;;;;;;;;;;4986767;28;20037;-93
2022/08/26 13:20:20;;;;;;;18.58;2.95;;;;;;;;;;4993815;28;20041;-93
2022/08/26 13:22:47;;;;;;;11.75;3.53;;;;;;;;;;4985718;28;20029;-93
2022/08/26 13:25:14;;;;;;;13.68;3.13;;;;;;;;;;5019512;28;20493;-93
2022/08/26 13:27:40;;;;;;;16.77;3.17;;;;;;;;;;4993812;28;20030;-93
2022/08/26 13:30:06;;;;;;;11.80;3.30;;;;;;;;;;4983800;28;20074;-92
2022/08/26 13:32:32;;;;;;;18.25;3.08;;;;;;;;;;4989620;28;20485;-94
2022/08/26 13:34:58;;;;;;;15.60;3.20;;;;;;;;;;4988954;28;20477;-94
2022/08/26 13:37:26;;;;;;;13.27;3.10;;;;;;;;;;4990243;28;20037;-92
2022/08/26 13:39:53;;;;;;;11.32;2.75;;;;;;;;;;4988023;28;20489;-92
2022/08/26 13:42:19;;;;;;;15.35;3.47;;;;;;;;;;5005350;28;20907;-92
2022/08/26 13:44:49;;;;;;;11.38;3.50;;;;;;;;;;4987234;28;20030;-93
2022/08/26 13:47:15;;;;;;;11.07;4.40;;;;;;;;;;5000286;28;20117;-93
2022/08/26 13:49:42;;;;;;;11.95;3.25;;;;;;;;;;5004774;28;20017;-93
2022/08/26 13:52:10;;;;;;;14.30;2.97;;;;;;;;;;4983769;28;20077;-93
2022/08/26 13:54:36;;;;;;;11.95;3.10;;;;;;;;;;4999813;28;20504;-93
2022/08/26 13:57:02;;;;;;;10.52;2.60;;;;;;;;;;4993314;28;20037;-92
2022/08/26 13:59:28;;;;;;;10.88;2.75;;;;;;;;;;4988568;28;20037;-92
2022/08/26 14:01:55;;;;;;;11.23;2.83;;;;;;;;;;4996586;28;20045;-92
2022/08/26 14:04:21;;;;;;;8.80;3.28;;;;;;;;;;4986656;28;20124;-92
2022/08/26 14:06:47;;;;;;;9.52;2.67;;;;;;;;;;4987307;28;20065;-93
2022/08/26 14:09:13;;;;;;;13.45;2.90;;;;;;;;;;4980545;28;20037;-92
2022/08/26 14:11:39;;;;;;;14.93;3.72;;;;;;;;;;5001027;28;20024;-93
2022/08/26 14:14:09;;;;;;;16.60;4.07;;;;;;;;;;4987623;28;20481;-94
2022/08/26 14:16:37;;;;;;;7.55;2.65;;;;;;;;;;4978247;28;20061;-94
2022/08/26 14:19:05;;;;;;;16.95;2.88;;;;;;;;;;4997882;28;20030;-94
2022/08/26 14:21:32;;;;;;;14.05;3.67;;;;;;;;;;4997314;28;20247;-93
2022/08/26 14:23:59;;;;;;;10.25;2.75;;;;;;;;;;4990622;28;20029;-92
2022/08/26 14:26:25;;;;;;;9.52;3.00;;;;;;;;;;4997428;28;20029;-93
2022/08/26 14:28:53;;;;;;;5.75;2.30;;;;;;;;;;4996042;28;20036;-93
2022/08/26 14:31:21;;;;;;;8.70;2.33;;;;;;;;;;4995128;28;20034;-93
2022/08/26 14:33:47;;;;;;;6.85;2.10;;;;;;;;;;4996542;28;20460;-94
2022/08/26 14:36:30;;;;;;;9.10;2.40;;;;;;;;;;4978129;28;20029;-94
2022/08/26 14:38:57;;;;;;;12.15;2.78;;;;;;;;;;4985734;28;20042;-94
2022/08/26 14:41:24;;;;;;;7.18;2.15;;;;;;;;;;5001008;28;20418;-93
2022/08/26 14:43:56;;;;;;;11.00;2.38;;;;;;;;;;4991075;28;20128;-93
2022/08/26 14:46:29;;;;;;;6.57;1.73;;;;;;;;;;4994918;28;20033;-94
2022/08/26 14:48:56;;;;;;;8.77;2.33;;;;;;;;;;4995755;28;20056;-91